Pilot Butte, Canada
Current Conditions -  °F | °C
As of 8:00 AM on Sunday 25 Jan 2015 (Local Time) from CYQR Reporting Station
Moderate Fog Moderate Fog  
Wind Chill: -9°   Ceiling: 200
Heat Index: -4°   Visibility: 0.37mi
Dew Point: -4°   Wind: 8mph
Humidity: 100%   Direction: 140°SE
Pressure: 29.92"   Gusts: NA
Location:  50.48°N, 104.42°W
Report Text: CYQR 251400Z 14007KT 3/8SM R13/4000FT/D FZFG VV002 M04/M04 A2992 RMK FG8 SLP161
Loading
Personal Weather Stations






























Interactive Weather Map New forecast layout! Learn more

10-Day Weather Forecast

Advertisements
Track Severe Weather on mobile